Time;durP1;ratioP1;P1;durP2;ratioP2;P2;SDS_P1;SDS_P2;PMS_P1;PMS_P2;Temp;Humidity;BMP_temperature;BMP_pressure;BME280_temperature;BME280_humidity;BME280_pressure;Samples;Min_cycle;Max_cycle;Signal;HPM_P1;HPM_P2
2023/04/03 00:00:00;;;;;;;;;;;;;;;;;;5118200;27;20006;-77
2023/04/03 00:02:26;;;;;;;;;;;;;;;;;;5118045;27;19973;-77
2023/04/03 00:04:52;;;;;;;;;;;4.60;99.90;;;;;;5117902;27;19966;-77
2023/04/03 00:07:18;;;;;;;;;;;;;;;;;;5118072;27;19916;-77
2023/04/03 00:09:44;;;;;;;;;;;;;;;;;;5117961;27;19977;-77
2023/04/03 00:12:10;;;;;;;;;;;4.70;99.90;;;;;;5129735;27;19923;-77
2023/04/03 00:14:36;;;;;;;;;;;4.50;99.90;;;;;;5117799;27;19934;-77
2023/04/03 00:17:01;;;;;;;;;;;4.60;99.90;;;;;;5128221;27;19919;-77
2023/04/03 00:19:27;;;;;;;;;;;;;;;;;;5118045;27;19915;-76
2023/04/03 00:21:53;;;;;;;;;;;;;;;;;;5117673;27;20308;-77
2023/04/03 00:24:19;;;;;;;;;;;;;;;;;;5099895;27;19924;-77
2023/04/03 00:26:45;;;;;;;;;;;;;;;;;;5117450;27;20051;-77
2023/04/03 00:29:11;;;;;;;;;;;;;;;;;;5117506;27;19915;-76
2023/04/03 00:31:37;;;;;;;;;;;;;;;;;;5116242;27;19919;-76
2023/04/03 00:34:03;;;;;;;;;;;;;;;;;;5117134;27;19919;-77
2023/04/03 00:36:29;;;;;;;;;;;;;;;;;;5116586;27;20077;-77
2023/04/03 00:38:55;;;;;;;;;;;;;;;;;;5117781;27;19946;-76
2023/04/03 00:41:21;;;;;;;;;;;;;;;;;;5117786;27;19916;-77
2023/04/03 00:43:47;;;;;;;;;;;;;;;;;;5118095;27;19919;-76
2023/04/03 00:46:13;;;;;;;;;;;;;;;;;;5117890;27;19915;-77
2023/04/03 00:48:38;;;;;;;;;;;4.10;99.90;;;;;;5118077;27;19915;-76
2023/04/03 00:51:04;;;;;;;;;;;;;;;;;;5118278;27;19933;-76
2023/04/03 00:53:30;;;;;;;;;;;;;;;;;;5100398;27;20376;-76
2023/04/03 00:55:56;;;;;;;;;;;;;;;;;;5117953;27;19915;-76
2023/04/03 00:58:25;;;;;;;;;;;4.10;99.90;;;;;;5118032;27;20009;-76
2023/04/03 01:00:55;;;;;;;;;;;;;;;;;;5117666;27;19923;-76
2023/04/03 01:03:21;;;;;;;;;;;;;;;;;;5118032;27;20291;-76
2023/04/03 01:05:47;;;;;;;;;;;;;;;;;;5118310;27;19915;-78
2023/04/03 01:08:13;;;;;;;;;;;;;;;;;;5100596;27;20487;-76
2023/04/03 01:10:39;;;;;;;;;;;;;;;;;;5116011;27;19923;-76
2023/04/03 01:13:05;;;;;;;;;;;;;;;;;;5116991;27;19919;-76
2023/04/03 01:15:34;;;;;;;;;;;;;;;;;;5117008;27;19921;-77
2023/04/03 01:18:00;;;;;;;;;;;3.80;99.90;;;;;;5117238;27;19915;-76
2023/04/03 01:20:26;;;;;;;;;;;;;;;;;;5117198;27;20007;-76
2023/04/03 01:23:01;;;;;;;;;;;3.80;99.90;;;;;;5117336;27;19938;-77
2023/04/03 01:25:26;;;;;;;;;;;3.80;99.90;;;;;;5134483;27;20274;-77
2023/04/03 01:27:52;;;;;;;;;;;;;;;;;;5100345;27;20006;-78
2023/04/03 01:30:19;;;;;;;;;;;3.70;99.90;;;;;;5100071;27;19919;-77
2023/04/03 01:32:45;;;;;;;;;;;;;;;;;;5124870;27;19919;-78
2023/04/03 01:35:11;;;;;;;;;;;;;;;;;;5117220;27;19922;-77
2023/04/03 01:37:37;;;;;;;;;;;;;;;;;;5117061;27;20027;-77
2023/04/03 01:40:03;;;;;;;;;;;;;;;;;;5117434;27;19922;-77
2023/04/03 01:42:29;;;;;;;;;;;;;;;;;;5116742;27;20454;-77
2023/04/03 01:44:55;;;;;;;;;;;;;;;;;;5099672;27;19915;-77
2023/04/03 01:47:21;;;;;;;;;;;;;;;;;;5116461;27;19921;-77
2023/04/03 01:49:47;;;;;;;;;;;;;;;;;;5117083;27;19923;-77
2023/04/03 01:52:13;;;;;;;;;;;3.60;99.90;;;;;;5116663;27;19920;-77
2023/04/03 01:54:38;;;;;;;;;;;3.50;99.90;;;;;;5116828;27;20420;-78
2023/04/03 01:57:04;;;;;;;;;;;3.60;99.90;;;;;;5116359;27;20275;-77
2023/04/03 01:59:30;;;;;;;;;;;;;;;;;;5116568;27;19919;-77
2023/04/03 02:01:55;;;;;;;;;;;3.50;99.90;;;;;;5116816;27;19923;-77
2023/04/03 02:04:21;;;;;;;;;;;;;;;;;;5116233;27;20402;-77
2023/04/03 02:06:47;;;;;;;;;;;;;;;;;;5116040;27;19924;-77
2023/04/03 02:09:13;;;;;;;;;;;;;;;;;;5116134;27;19984;-77
2023/04/03 02:11:39;;;;;;;;;;;;;;;;;;5116384;27;19923;-77
2023/04/03 02:14:05;;;;;;;;;;;;;;;;;;5116384;27;20057;-77
2023/04/03 02:16:31;;;;;;;;;;;;;;;;;;5132990;27;19915;-77
2023/04/03 02:18:57;;;;;;;;;;;;;;;;;;5116365;27;20374;-77
2023/04/03 02:21:23;;;;;;;;;;;;;;;;;;5116157;27;19915;-77
2023/04/03 02:23:49;;;;;;;;;;;;;;;;;;5115825;27;20449;-77
2023/04/03 02:26:15;;;;;;;;;;;;;;;;;;5115774;27;19998;-77
2023/04/03 02:28:41;;;;;;;;;;;;;;;;;;5118044;27;19916;-78
2023/04/03 02:31:07;;;;;;;;;;;;;;;;;;5123237;27;19949;-77
2023/04/03 02:33:33;;;;;;;;;;;;;;;;;;5124242;27;19968;-77
2023/04/03 02:35:59;;;;;;;;;;;;;;;;;;5121776;27;19968;-77
2023/04/03 02:38:25;;;;;;;;;;;;;;;;;;5115908;27;19915;-77
2023/04/03 02:40:51;;;;;;;;;;;;;;;;;;5115801;27;19912;-77
2023/04/03 02:43:17;;;;;;;;;;;;;;;;;;5133520;27;19966;-77
2023/04/03 02:45:43;;;;;;;;;;;3.00;99.90;;;;;;5115449;27;19977;-77
2023/04/03 02:48:09;;;;;;;;;;;;;;;;;;5115704;27;19998;-71
2023/04/03 02:50:35;;;;;;;;;;;3.00;99.90;;;;;;5115006;27;20373;-71
2023/04/03 02:53:01;;;;;;;;;;;;;;;;;;5115023;27;20014;-71
2023/04/03 02:55:27;;;;;;;;;;;;;;;;;;5115382;27;19926;-71
2023/04/03 02:57:52;;;;;;;;;;;3.00;99.90;;;;;;5098366;27;20381;-71
2023/04/03 03:00:18;;;;;;;;;;;;;;;;;;5114669;27;19927;-71
2023/04/03 03:02:44;;;;;;;;;;;;;;;;;;5114937;27;20005;-71
2023/04/03 03:05:10;;;;;;;;;;;;;;;;;;5098071;27;19923;-71
2023/04/03 03:07:36;;;;;;;;;;;;;;;;;;5115146;28;19919;-71
2023/04/03 03:10:02;;;;;;;;;;;;;;;;;;5115584;27;19967;-71
2023/04/03 03:12:28;;;;;;;;;;;;;;;;;;5115077;28;19938;-71
2023/04/03 03:14:54;;;;;;;;;;;;;;;;;;5115158;28;19915;-71
2023/04/03 03:17:20;;;;;;;;;;;;;;;;;;5115439;28;20298;-71
2023/04/03 03:19:46;;;;;;;;;;;;;;;;;;5148616;27;19916;-71
2023/04/03 03:22:12;;;;;;;;;;;;;;;;;;5115040;28;20142;-70
2023/04/03 03:24:38;;;;;;;;;;;;;;;;;;5115413;28;19927;-77
2023/04/03 03:27:04;;;;;;;;;;;;;;;;;;5114950;28;20274;-71
2023/04/03 03:29:30;;;;;;;;;;;;;;;;;;5114847;28;19946;-71
2023/04/03 03:31:56;;;;;;;;;;;;;;;;;;5114700;28;19919;-71
2023/04/03 03:34:22;;;;;;;;;;;;;;;;;;5133364;28;19922;-70
2023/04/03 03:36:48;;;;;;;;;;;;;;;;;;5097555;28;19919;-71
2023/04/03 03:39:14;;;;;;;;;;;;;;;;;;5114804;28;19942;-71
2023/04/03 03:41:40;;;;;;;;;;;;;;;;;;5114636;28;19926;-71
2023/04/03 03:44:06;;;;;;;;;;;;;;;;;;5115071;28;19962;-70
2023/04/03 03:46:32;;;;;;;;;;;;;;;;;;5097767;28;19917;-70
2023/04/03 03:48:58;;;;;;;;;;;;;;;;;;5114441;28;19968;-71
2023/04/03 03:51:24;;;;;;;;;;;;;;;;;;5114657;27;19919;-71
2023/04/03 03:53:50;;;;;;;;;;;;;;;;;;5114730;28;20001;-70
2023/04/03 03:56:18;;;;;;;;;;;2.50;99.90;;;;;;5097823;28;19915;-71
2023/04/03 03:58:44;;;;;;;;;;;;;;;;;;5114532;28;20428;-70
2023/04/03 04:01:09;;;;;;;;;;;2.50;99.90;;;;;;5114972;28;19920;-77
2023/04/03 04:03:36;;;;;;;;;;;;;;;;;;5115155;28;20282;-77
2023/04/03 04:06:02;;;;;;;;;;;2.40;99.90;;;;;;5114731;28;19937;-77
2023/04/03 04:08:28;;;;;;;;;;;2.50;99.90;;;;;;5126392;28;19915;-77
2023/04/03 04:10:53;;;;;;;;;;;2.50;99.90;;;;;;5116769;27;20256;-77
2023/04/03 04:13:19;;;;;;;;;;;;;;;;;;5118401;27;20398;-77
2023/04/03 04:15:48;;;;;;;;;;;;;;;;;;5118481;27;19915;-77
2023/04/03 04:18:13;;;;;;;;;;;2.40;99.90;;;;;;5138077;27;20446;-77
2023/04/03 04:20:39;;;;;;;;;;;;;;;;;;5118147;27;20019;-71
2023/04/03 04:23:05;;;;;;;;;;;;;;;;;;5118217;27;19915;-70
2023/04/03 04:25:31;;;;;;;;;;;;;;;;;;5118551;27;19915;-70
2023/04/03 04:27:57;;;;;;;;;;;;;;;;;;5101184;27;20388;-71
2023/04/03 04:30:23;;;;;;;;;;;;;;;;;;5117750;27;19926;-71
2023/04/03 04:32:49;;;;;;;;;;;;;;;;;;5117896;27;19962;-77
2023/04/03 04:35:15;;;;;;;;;;;;;;;;;;5101179;27;19968;-77
2023/04/03 04:37:41;;;;;;;;;;;2.50;99.90;;;;;;5113231;27;19927;-77
2023/04/03 04:40:07;;;;;;;;;;;;;;;;;;5134809;27;19916;-77
2023/04/03 04:42:33;;;;;;;;;;;;;;;;;;5117967;27;19922;-77
2023/04/03 04:44:59;;;;;;;;;;;;;;;;;;5118079;27;19916;-77
2023/04/03 04:47:25;;;;;;;;;;;;;;;;;;5118429;27;19916;-77
2023/04/03 04:49:50;;;;;;;;;;;2.20;99.90;;;;;;5151617;27;20252;-71
2023/04/03 04:52:16;;;;;;;;;;;;;;;;;;5117723;27;19972;-70
2023/04/03 04:54:42;;;;;;;;;;;;;;;;;;5100367;27;19943;-70
2023/04/03 04:57:08;;;;;;;;;;;;;;;;;;5117496;27;19915;-70
2023/04/03 04:59:34;;;;;;;;;;;2.10;99.90;;;;;;5117338;27;19915;-71
2023/04/03 05:02:00;;;;;;;;;;;;;;;;;;5117265;27;19928;-71
2023/04/03 05:04:26;;;;;;;;;;;;;;;;;;5117421;27;19916;-71
2023/04/03 05:06:52;;;;;;;;;;;;;;;;;;5117537;27;20006;-71
2023/04/03 05:09:19;;;;;;;;;;;;;;;;;;5148217;27;20390;-71
2023/04/03 05:11:45;;;;;;;;;;;;;;;;;;5100113;27;19920;-71
2023/04/03 05:14:11;;;;;;;;;;;;;;;;;;5117307;27;19921;-70
2023/04/03 05:16:37;;;;;;;;;;;2.20;99.90;;;;;;5116941;27;19919;-70
2023/04/03 05:19:03;;;;;;;;;;;2.10;99.90;;;;;;5116866;27;19919;-70
2023/04/03 05:21:31;;;;;;;;;;;2.10;99.90;;;;;;5116695;27;19919;-71
2023/04/03 05:23:58;;;;;;;;;;;2.00;99.90;;;;;;5150281;27;19915;-70
2023/04/03 05:26:23;;;;;;;;;;;2.10;99.90;;;;;;5116889;27;19968;-70
2023/04/03 05:28:49;;;;;;;;;;;;;;;;;;5116873;27;20300;-70
2023/04/03 05:31:15;;;;;;;;;;;;;;;;;;5116624;27;19973;-70
2023/04/03 05:33:41;;;;;;;;;;;;;;;;;;5117075;27;19915;-71
2023/04/03 05:36:07;;;;;;;;;;;;;;;;;;5099781;27;19997;-71
2023/04/03 05:38:33;;;;;;;;;;;;;;;;;;5117076;27;19919;-70
2023/04/03 05:40:59;;;;;;;;;;;;;;;;;;5116957;27;19915;-70
2023/04/03 05:43:25;;;;;;;;;;;1.90;99.90;;;;;;5099939;27;20011;-70
2023/04/03 05:45:51;;;;;;;;;;;;;;;;;;5099683;27;19947;-70
2023/04/03 05:48:17;;;;;;;;;;;;;;;;;;5116359;27;19915;-70
2023/04/03 05:50:43;;;;;;;;;;;;;;;;;;5116304;27;19915;-71
2023/04/03 05:53:09;;;;;;;;;;;;;;;;;;5116286;27;19970;-70
2023/04/03 05:55:35;;;;;;;;;;;;;;;;;;5099479;27;20301;-71
2023/04/03 05:58:01;;;;;;;;;;;;;;;;;;5116215;27;19915;-71
2023/04/03 06:00:27;;;;;;;;;;;;;;;;;;5099261;27;19918;-70
2023/04/03 06:02:53;;;;;;;;;;;;;;;;;;5115915;27;20428;-70
2023/04/03 06:05:19;;;;;;;;;;;2.20;99.90;;;;;;5116591;27;19919;-70
2023/04/03 06:07:45;;;;;;;;;;;;;;;;;;5116026;27;19962;-70
2023/04/03 06:10:12;;;;;;;;;;;2.20;99.90;;;;;;5150004;27;19960;-70
2023/04/03 06:12:38;;;;;;;;;;;;;;;;;;5098664;27;19926;-70
2023/04/03 06:15:04;;;;;;;;;;;2.30;99.90;;;;;;5116115;27;19915;-70
2023/04/03 06:17:31;;;;;;;;;;;;;;;;;;5134316;27;19915;-70
2023/04/03 06:19:58;;;;;;;;;;;2.40;99.90;;;;;;5116152;27;20312;-70
2023/04/03 06:22:25;;;;;;;;;;;;;;;;;;5116122;27;20287;-70
2023/04/03 06:24:51;;;;;;;;;;;;;;;;;;5135701;27;19922;-70
2023/04/03 06:27:17;;;;;;;;;;;;;;;;;;5115707;27;20006;-70
2023/04/03 06:29:44;;;;;;;;;;;2.30;99.90;;;;;;5098726;27;19934;-71
2023/04/03 06:32:10;;;;;;;;;;;2.40;99.90;;;;;;5099057;27;19984;-70
2023/04/03 06:34:36;;;;;;;;;;;;;;;;;;5114635;27;20371;-71
2023/04/03 06:37:02;;;;;;;;;;;;;;;;;;5149178;27;20005;-70
2023/04/03 06:39:28;;;;;;;;;;;2.60;99.90;;;;;;5115667;27;19951;-71
2023/04/03 06:41:53;;;;;;;;;;;2.40;99.90;;;;;;5115341;27;19922;-70
2023/04/03 06:44:19;;;;;;;;;;;;;;;;;;5115516;27;19985;-70
2023/04/03 06:46:46;;;;;;;;;;;;;;;;;;5112608;27;19915;-70
2023/04/03 06:49:12;;;;;;;;;;;2.40;99.90;;;;;;5136480;27;20022;-70
2023/04/03 06:51:37;;;;;;;;;;;2.80;99.90;;;;;;5115327;27;20002;-70
2023/04/03 06:54:03;;;;;;;;;;;;;;;;;;5115184;27;19922;-71
2023/04/03 06:56:29;;;;;;;;;;;;;;;;;;5114980;27;19915;-72
2023/04/03 06:58:57;;;;;;;;;;;2.70;99.90;;;;;;5098080;27;19923;-70
2023/04/03 07:01:23;;;;;;;;;;;;;;;;;;5078889;28;19959;-69
2023/04/03 07:03:49;;;;;;;;;;;;;;;;;;5115102;27;19962;-70
2023/04/03 07:06:15;;;;;;;;;;;;;;;;;;5115239;28;19923;-69
2023/04/03 07:08:41;;;;;;;;;;;;;;;;;;5115006;27;20371;-69
2023/04/03 07:11:07;;;;;;;;;;;2.90;99.90;;;;;;5115130;28;20020;-70
2023/04/03 07:13:33;;;;;;;;;;;3.00;99.90;;;;;;5115032;28;19915;-70
2023/04/03 07:15:59;;;;;;;;;;;3.00;99.90;;;;;;5114994;28;19915;-70
2023/04/03 07:18:25;;;;;;;;;;;3.20;99.90;;;;;;5131999;27;19922;-70
2023/04/03 07:20:51;;;;;;;;;;;3.10;99.90;;;;;;5144426;27;20363;-70
2023/04/03 07:23:17;;;;;;;;;;;;;;;;;;5114623;28;19926;-70
2023/04/03 07:25:46;;;;;;;;;;;3.10;99.90;;;;;;5113656;28;19985;-70
2023/04/03 07:28:13;;;;;;;;;;;;;;;;;;5114621;28;19922;-70
2023/04/03 07:30:38;;;;;;;;;;;;;;;;;;5115628;28;19926;-70
2023/04/03 07:33:04;;;;;;;;;;;3.30;99.90;;;;;;5115498;28;19994;-70
2023/04/03 07:35:30;;;;;;;;;;;3.40;99.90;;;;;;5116228;28;19923;-70
2023/04/03 07:37:56;;;;;;;;;;;;;;;;;;5116281;28;19915;-70
2023/04/03 07:40:22;;;;;;;;;;;;;;;;;;5116256;28;19931;-77
2023/04/03 07:42:48;;;;;;;;;;;3.60;99.90;;;;;;5115638;28;19968;-77
2023/04/03 07:45:14;;;;;;;;;;;;;;;;;;5099069;27;19916;-76
2023/04/03 07:47:40;;;;;;;;;;;;;;;;;;5118951;27;19919;-70
2023/04/03 07:50:06;;;;;;;;;;;3.70;99.90;;;;;;5118405;27;20389;-70
2023/04/03 07:52:32;;;;;;;;;;;;;;;;;;5118251;27;20375;-70
2023/04/03 07:54:58;;;;;;;;;;;3.90;99.90;;;;;;5118975;27;19922;-70
2023/04/03 07:57:24;;;;;;;;;;;;;;;;;;5118722;27;19915;-71
2023/04/03 07:59:50;;;;;;;;;;;;;;;;;;5116690;27;19919;-71
2023/04/03 08:02:16;;;;;;;;;;;3.90;99.90;;;;;;5119317;27;19922;-72
2023/04/03 08:04:42;;;;;;;;;;;4.30;99.90;;;;;;5119344;27;19987;-71
2023/04/03 08:07:07;;;;;;;;;;;;;;;;;;5119290;27;19999;-71
2023/04/03 08:09:33;;;;;;;;;;;;;;;;;;5119304;27;19926;-71
2023/04/03 08:11:59;;;;;;;;;;;4.30;99.90;;;;;;5119085;27;19971;-71
2023/04/03 08:14:25;;;;;;;;;;;;;;;;;;5101992;27;19916;-71
2023/04/03 08:16:51;;;;;;;;;;;;;;;;;;5153231;27;19967;-71
2023/04/03 08:19:17;;;;;;;;;;;;;;;;;;5119333;27;19923;-71
2023/04/03 08:21:43;;;;;;;;;;;;;;;;;;5119202;27;20232;-71
2023/04/03 08:24:09;;;;;;;;;;;4.60;99.90;;;;;;5119244;27;19922;-71
2023/04/03 08:26:35;;;;;;;;;;;;;;;;;;5118925;27;19915;-71
2023/04/03 08:29:02;;;;;;;;;;;;;;;;;;5118657;27;19922;-79
2023/04/03 08:31:28;;;;;;;;;;;4.90;99.90;;;;;;5103257;27;19931;-80
2023/04/03 08:33:53;;;;;;;;;;;4.80;99.90;;;;;;5153576;27;19915;-80
2023/04/03 08:36:20;;;;;;;;;;;4.90;99.90;;;;;;5102757;27;19943;-79
2023/04/03 08:38:46;;;;;;;;;;;;;;;;;;5154977;27;19915;-79
2023/04/03 08:41:30;;;;;;;;;;;5.20;99.90;;;;;;5104266;27;19964;-79
2023/04/03 08:43:58;;;;;;;;;;;5.30;99.90;;;;;;5102057;27;19915;-75
2023/04/03 08:46:24;;;;;;;;;;;;;;;;;;5135591;27;19915;-75
2023/04/03 08:48:50;;;;;;;;;;;;;;;;;;5101718;27;19922;-74
2023/04/03 08:51:19;;;;;;;;;;;5.50;99.90;;;;;;5118707;27;19919;-73
2023/04/03 08:53:49;;;;;;;;;;;5.60;99.90;;;;;;5118179;27;19958;-72
2023/04/03 08:56:17;;;;;;;;;;;;;;;;;;5117644;27;19966;-72
2023/04/03 08:58:55;;;;;;;;;;;5.90;99.90;;;;;;5117100;27;19922;-72
2023/04/03 09:01:21;;;;;;;;;;;;;;;;;;5118263;27;19915;-73
2023/04/03 09:03:47;;;;;;;;;;;6.00;99.90;;;;;;5118322;27;19915;-73
2023/04/03 09:06:13;;;;;;;;;;;;;;;;;;5118094;27;19915;-73
2023/04/03 09:08:40;;;;;;;;;;;;;;;;;;5101093;27;20076;-73
2023/04/03 09:11:08;;;;;;;;;;;6.20;99.90;;;;;;5140922;27;19915;-73
2023/04/03 09:13:36;;;;;;;;;;;;;;;;;;5136859;27;20287;-73
2023/04/03 09:16:02;;;;;;;;;;;;;;;;;;5118009;27;19964;-73
2023/04/03 09:18:28;;;;;;;;;;;;;;;;;;5118095;27;19926;-75
2023/04/03 09:20:54;;;;;;;;;;;6.50;99.90;;;;;;5117622;27;19916;-75
2023/04/03 09:23:20;;;;;;;;;;;;;;;;;;5117956;27;20369;-74
2023/04/03 09:25:46;;;;;;;;;;;;;;;;;;5117994;27;19916;-74
2023/04/03 09:28:12;;;;;;;;;;;;;;;;;;5118023;27;19962;-74
2023/04/03 09:30:38;;;;;;;;;;;;;;;;;;5117659;27;20019;-73
2023/04/03 09:33:04;;;;;;;;;;;6.90;99.90;;;;;;5117045;27;19923;-74
2023/04/03 09:35:31;;;;;;;;;;;6.80;99.90;;;;;;5143275;27;19927;-74
2023/04/03 09:37:58;;;;;;;;;;;;;;;;;;5117210;27;19915;-74
2023/04/03 09:40:34;;;;;;;;;;;7.00;99.90;;;;;;5100261;27;20328;-74
2023/04/03 09:43:00;;;;;;;;;;;;;;;;;;5115709;27;20013;-73
2023/04/03 09:45:33;;;;;;;;;;;6.90;99.90;;;;;;5117157;27;20330;-74
2023/04/03 09:48:18;;;;;;;;;;;7.30;99.90;;;;;;5117009;27;19923;-74
2023/04/03 09:50:51;;;;;;;;;;;7.20;99.90;;;;;;5113557;27;19915;-74
2023/04/03 09:53:17;;;;;;;;;;;;;;;;;;5142765;27;19919;-74
2023/04/03 09:55:42;;;;;;;;;;;;;;;;;;5102546;27;19915;-74
2023/04/03 09:58:09;;;;;;;;;;;;;;;;;;5122479;27;19968;-74
2023/04/03 10:00:36;;;;;;;;;;;7.70;99.90;;;;;;5115567;27;19951;-73
2023/04/03 10:03:02;;;;;;;;;;;;;;;;;;5117073;27;20407;-72
2023/04/03 10:05:35;;;;;;;;;;;7.70;99.90;;;;;;5116775;27;19922;-72
2023/04/03 10:08:01;;;;;;;;;;;;;;;;;;5116565;27;20300;-72
2023/04/03 10:10:27;;;;;;;;;;;;;;;;;;5115253;27;19973;-72
2023/04/03 10:12:53;;;;;;;;;;;;;;;;;;5114687;27;20375;-72
2023/04/03 10:15:18;;;;;;;;;;;8.10;99.90;;;;;;5114973;27;19915;-71
2023/04/03 10:17:45;;;;;;;;;;;;;;;;;;5115803;27;19968;-72
2023/04/03 10:20:11;;;;;;;;;;;;;;;;;;5115824;27;20051;-74
2023/04/03 10:22:38;;;;;;;;;;;8.40;99.90;;;;;;5115934;27;19916;-74
2023/04/03 10:25:04;;;;;;;;;;;;;;;;;;5116187;27;20359;-74
2023/04/03 10:27:39;;;;;;;;;;;8.50;99.90;;;;;;5114367;27;20415;-74
2023/04/03 10:30:05;;;;;;;;;;;;;;;;;;5118591;27;19964;-74
2023/04/03 10:32:31;;;;;;;;;;;;;;;;;;5114522;27;19927;-74
2023/04/03 10:34:57;;;;;;;;;;;;;;;;;;5123422;27;19922;-75
2023/04/03 10:37:23;;;;;;;;;;;;;;;;;;5115168;27;20252;-74
2023/04/03 10:39:49;;;;;;;;;;;;;;;;;;5115630;27;19919;-74
2023/04/03 10:42:15;;;;;;;;;;;;;;;;;;5114738;27;19967;-73
2023/04/03 10:44:42;;;;;;;;;;;;;;;;;;5116073;27;19967;-74
2023/04/03 10:47:08;;;;;;;;;;;;;;;;;;5125406;27;20272;-74
2023/04/03 10:49:33;;;;;;;;;;;9.10;99.50;;;;;;5142961;27;19922;-74
2023/04/03 10:52:00;;;;;;;;;;;;;;;;;;5133518;27;20031;-71
2023/04/03 10:54:26;;;;;;;;;;;;;;;;;;5136759;27;19915;-71
2023/04/03 10:56:52;;;;;;;;;;;;;;;;;;5119787;27;19922;-71
2023/04/03 10:59:18;;;;;;;;;;;;;;;;;;5106340;27;19964;-71
2023/04/03 11:01:46;;;;;;;;;;;9.30;97.00;;;;;;5116331;27;19923;-71
2023/04/03 11:04:12;;;;;;;;;;;;;;;;;;5128491;27;19922;-72
2023/04/03 11:06:40;;;;;;;;;;;9.50;97.90;;;;;;5136512;27;20114;-72
2023/04/03 11:09:07;;;;;;;;;;;;;;;;;;5119547;27;20263;-73
2023/04/03 11:11:35;;;;;;;;;;;9.60;98.70;;;;;;5136738;27;19919;-72
2023/04/03 11:14:01;;;;;;;;;;;;;;;;;;5109620;28;19919;-72
2023/04/03 11:16:28;;;;;;;;;;;9.80;96.70;;;;;;5116184;28;20374;-72
2023/04/03 11:18:54;;;;;;;;;;;;;;;;;;5148516;27;19960;-71
2023/04/03 11:21:21;;;;;;;;;;;;;;;;;;5121880;27;19915;-75
2023/04/03 11:23:47;;;;;;;;;;;;;;;;;;5157554;27;19919;-75
2023/04/03 11:26:14;;;;;;;;;;;;;;;;;;5123251;27;20404;-75
2023/04/03 11:28:40;;;;;;;;;;;;;;;;;;5157295;27;19968;-75
2023/04/03 11:31:12;;;;;;;;;;;9.80;96.50;;;;;;5157231;27;19925;-75
2023/04/03 11:33:41;;;;;;;;;;;10.00;94.30;;;;;;5122802;27;19919;-75
2023/04/03 11:36:09;;;;;;;;;;;9.90;96.50;;;;;;5106000;27;19960;-75
2023/04/03 11:38:36;;;;;;;;;;;;;;;;;;5123232;27;19916;-72
2023/04/03 11:41:02;;;;;;;;;;;9.80;94.30;;;;;;5123174;27;20265;-72
2023/04/03 11:43:30;;;;;;;;;;;9.90;95.70;;;;;;5123036;27;19980;-72
2023/04/03 11:46:03;;;;;;;;;;;10.10;94.40;;;;;;5106121;27;19938;-73
2023/04/03 11:48:31;;;;;;;;;;;10.00;94.00;;;;;;5122489;27;20006;-72
2023/04/03 11:51:00;;;;;;;;;;;10.10;93.00;;;;;;5122851;27;20309;-72
2023/04/03 11:53:27;;;;;;;;;;;;;;;;;;5105535;27;20385;-72
2023/04/03 11:55:53;;;;;;;;;;;;;;;;;;5122879;27;20060;-72
2023/04/03 11:58:20;;;;;;;;;;;;;;;;;;5122810;27;19915;-73
2023/04/03 12:00:51;;;;;;;;;;;10.20;93.30;;;;;;5122753;27;19915;-73
2023/04/03 12:03:26;;;;;;;;;;;10.40;94.60;;;;;;5122593;27;19919;-73
2023/04/03 12:05:52;;;;;;;;;;;10.40;94.60;;;;;;5122615;27;19919;-73
2023/04/03 12:08:28;;;;;;;;;;;10.40;93.70;;;;;;5123001;27;19922;-75
2023/04/03 12:10:54;;;;;;;;;;;;;;;;;;5122956;27;19916;-75
2023/04/03 12:13:20;;;;;;;;;;;;;;;;;;5124118;27;19916;-75
2023/04/03 12:15:46;;;;;;;;;;;;;;;;;;5143203;27;19971;-75
2023/04/03 12:18:12;;;;;;;;;;;;;;;;;;5138359;27;19922;-75
2023/04/03 12:20:38;;;;;;;;;;;;;;;;;;5157199;27;19976;-75
2023/04/03 12:23:04;;;;;;;;;;;;;;;;;;5122752;27;20347;-75
2023/04/03 12:25:30;;;;;;;;;;;;;;;;;;5122350;27;20274;-76
2023/04/03 12:27:56;;;;;;;;;;;10.80;93.10;;;;;;5106004;27;19915;-76
2023/04/03 12:30:25;;;;;;;;;;;11.10;93.70;;;;;;5101979;28;20323;-76
2023/04/03 12:32:51;;;;;;;;;;;;;;;;;;5099140;28;19924;-75
2023/04/03 12:35:17;;;;;;;;;;;;;;;;;;5115923;28;19961;-71
2023/04/03 12:38:00;;;;;;;;;;;10.90;93.70;;;;;;5116234;28;19919;-71
2023/04/03 12:40:26;;;;;;;;;;;;;;;;;;5115669;28;19916;-72
2023/04/03 12:42:52;;;;;;;;;;;;;;;;;;5116023;28;19923;-72
2023/04/03 12:45:18;;;;;;;;;;;;;;;;;;5115431;28;20391;-72
2023/04/03 12:47:44;;;;;;;;;;;;;;;;;;5114554;28;20044;-72
2023/04/03 12:50:10;;;;;;;;;;;;;;;;;;5092241;28;19927;-72
2023/04/03 12:52:36;;;;;;;;;;;;;;;;;;5115420;28;19920;-72
2023/04/03 12:55:05;;;;;;;;;;;;;;;;;;5115153;28;19919;-72
2023/04/03 12:57:32;;;;;;;;;;;11.40;93.60;;;;;;5115148;28;20002;-72
2023/04/03 12:59:58;;;;;;;;;;;;;;;;;;5115359;28;19971;-72
2023/04/03 13:02:24;;;;;;;;;;;;;;;;;;5115208;28;20275;-73
2023/04/03 13:04:50;;;;;;;;;;;;;;;;;;5114976;28;19969;-72
2023/04/03 13:07:25;;;;;;;;;;;11.40;91.90;;;;;;5114969;28;19915;-72
2023/04/03 13:09:51;;;;;;;;;;;;;;;;;;5115194;28;20283;-72
2023/04/03 13:12:17;;;;;;;;;;;11.50;91.60;;;;;;5115058;28;19923;-73
2023/04/03 13:14:43;;;;;;;;;;;;;;;;;;5114639;28;20334;-72
2023/04/03 13:17:16;;;;;;;;;;;11.60;92.60;;;;;;5114495;28;19977;-72
2023/04/03 13:19:41;;;;;;;;;;;;;;;;;;5106060;28;19951;-72
2023/04/03 13:22:07;;;;;;;;;;;;;;;;;;5114820;28;19915;-73
2023/04/03 13:24:34;;;;;;;;;;;;;;;;;;5097996;28;19916;-73
2023/04/03 13:27:00;;;;;;;;;;;;;;;;;;5114654;28;19960;-72
2023/04/03 13:29:26;;;;;;;;;;;;;;;;;;5114476;28;19916;-72
2023/04/03 13:31:52;;;;;;;;;;;;;;;;;;5114444;28;19927;-72
2023/04/03 13:34:17;;;;;;;;;;;;;;;;;;5097782;28;19922;-72
2023/04/03 13:36:49;;;;;;;;;;;12.10;90.70;;;;;;5097876;28;19923;-72
2023/04/03 13:39:18;;;;;;;;;;;12.10;92.00;;;;;;5097165;28;20379;-72
2023/04/03 13:41:44;;;;;;;;;;;;;;;;;;5114435;28;19916;-72
2023/04/03 13:44:10;;;;;;;;;;;;;;;;;;5096305;28;19915;-73
2023/04/03 13:46:35;;;;;;;;;;;11.80;90.30;;;;;;5114751;28;19922;-72
2023/04/03 13:49:16;;;;;;;;;;;11.60;90.50;;;;;;5126537;27;19923;-72
2023/04/03 13:51:42;;;;;;;;;;;;;;;;;;5093761;28;20059;-72
2023/04/03 13:54:08;;;;;;;;;;;;;;;;;;5093796;28;19966;-72
2023/04/03 13:56:38;;;;;;;;;;;12.00;91.10;;;;;;5094004;28;19916;-72
2023/04/03 13:59:03;;;;;;;;;;;;;;;;;;5093780;28;19916;-72
2023/04/03 14:01:30;;;;;;;;;;;;;;;;;;5094026;28;19989;-72
2023/04/03 14:04:00;;;;;;;;;;;11.80;91.60;;;;;;5093616;28;19955;-72
2023/04/03 14:06:26;;;;;;;;;;;12.00;91.90;;;;;;5093506;28;19916;-72
2023/04/03 14:08:52;;;;;;;;;;;12.00;91.80;;;;;;5093503;28;19970;-72
2023/04/03 14:11:23;;;;;;;;;;;12.20;92.40;;;;;;5076585;28;19915;-72
2023/04/03 14:13:50;;;;;;;;;;;12.40;92.40;;;;;;5093565;28;19923;-72
2023/04/03 14:16:16;;;;;;;;;;;;;;;;;;5093399;28;19922;-72
2023/04/03 14:18:42;;;;;;;;;;;;;;;;;;5081592;28;19916;-72
2023/04/03 14:21:10;;;;;;;;;;;12.30;91.40;;;;;;5076401;28;19915;-72
2023/04/03 14:23:36;;;;;;;;;;;;;;;;;;5076469;28;19916;-72
2023/04/03 14:26:03;;;;;;;;;;;;;;;;;;5076355;28;19977;-77
2023/04/03 14:28:30;;;;;;;;;;;;;;;;;;5076279;28;19916;-73
2023/04/03 14:30:56;;;;;;;;;;;;;;;;;;5075471;28;20390;-73
2023/04/03 14:33:22;;;;;;;;;;;12.50;90.80;;;;;;5092315;28;19920;-73
2023/04/03 14:35:48;;;;;;;;;;;12.40;90.50;;;;;;5093135;28;20326;-73
2023/04/03 14:38:22;;;;;;;;;;;12.30;90.80;;;;;;5093049;28;19923;-72
2023/04/03 14:40:48;;;;;;;;;;;;;;;;;;5092905;28;20409;-79
2023/04/03 14:43:15;;;;;;;;;;;12.30;91.10;;;;;;5093167;28;19916;-73
2023/04/03 14:45:40;;;;;;;;;;;;;;;;;;5127047;27;19916;-73
2023/04/03 14:48:09;;;;;;;;;;;12.50;90.90;;;;;;5092816;28;19923;-72
2023/04/03 14:50:35;;;;;;;;;;;;;;;;;;5126870;27;19970;-73
2023/04/03 14:53:01;;;;;;;;;;;;;;;;;;5092469;28;19963;-73
2023/04/03 14:55:27;;;;;;;;;;;;;;;;;;5090741;28;19915;-73
2023/04/03 14:57:53;;;;;;;;;;;;;;;;;;5091139;28;19969;-72
2023/04/03 15:00:19;;;;;;;;;;;;;;;;;;5091656;28;20328;-72
2023/04/03 15:02:45;;;;;;;;;;;;;;;;;;5091585;28;19916;-72
2023/04/03 15:05:11;;;;;;;;;;;;;;;;;;5093997;28;19919;-72
2023/04/03 15:07:37;;;;;;;;;;;;;;;;;;5092403;28;19922;-72
2023/04/03 15:10:03;;;;;;;;;;;;;;;;;;5109507;28;20002;-72
2023/04/03 15:12:29;;;;;;;;;;;;;;;;;;5092476;28;19928;-72
2023/04/03 15:14:55;;;;;;;;;;;;;;;;;;5092727;28;19963;-72
2023/04/03 15:17:21;;;;;;;;;;;11.70;91.80;;;;;;5091964;28;20328;-72
2023/04/03 15:19:47;;;;;;;;;;;11.60;92.10;;;;;;5074589;28;19916;-72
2023/04/03 15:22:13;;;;;;;;;;;;;;;;;;5097823;28;19917;-72
2023/04/03 15:24:39;;;;;;;;;;;;;;;;;;5094332;28;19920;-72
2023/04/03 15:27:05;;;;;;;;;;;;;;;;;;5093308;28;19915;-72
2023/04/03 15:29:31;;;;;;;;;;;;;;;;;;5090896;28;20010;-72
2023/04/03 15:31:57;;;;;;;;;;;;;;;;;;5095755;28;19957;-72
2023/04/03 15:34:23;;;;;;;;;;;;;;;;;;5101714;28;20379;-72
2023/04/03 15:36:49;;;;;;;;;;;;;;;;;;5081359;28;20102;-72
2023/04/03 15:39:17;;;;;;;;;;;;;;;;;;5086301;28;19965;-72
2023/04/03 15:41:43;;;;;;;;;;;;;;;;;;5102165;28;19916;-72
2023/04/03 15:44:09;;;;;;;;;;;10.40;94.30;;;;;;5095830;28;19923;-72
2023/04/03 15:46:35;;;;;;;;;;;;;;;;;;5082807;28;19916;-72
2023/04/03 15:49:01;;;;;;;;;;;;;;;;;;5091371;28;19919;-72
2023/04/03 15:51:27;;;;;;;;;;;;;;;;;;5090781;28;19915;-72